Tiempo atmosférico en la estación meteorológica de Balmaseda, Bizkaia (210 m.)



Fecha
DESCASC
Temp. máxima en grados centígrados (hora)
DESCASC
Temp. mínima en grados centígrados (hora)
DESCASC
Temp. media en grados centígrados
DESCASC
Racha de viento máxima en m/sg (hora)
DESCASC
Velocidad máxima media en intervalos de 10 minutos(hora)
DESCASC
Precipitaciones diarias en mm
DESCASC
Precipitaciones de 00:00 a 06:00 en mm
DESCASC
Precipitaciones de 06:00 a 12:00 en mm
DESCASC
Precipitaciones de 12:00 a 18:00 en mm
DESCASC
Precipitaciones de 18:00 a 24:00 en mm
DESCASC
18-01-2018 12.7 (14:30) -0.1 (08:40) 6.3 -- (--) -- (--) 0 0 0 0 0
17-01-2018 13 (00:30) 4.1 (23:59) 8.5 -- (--) -- (--) 10.6 5.4 4.8 0.4 0
16-01-2018 17.3 (14:20) 9 (00:00) 13.1 -- (--) -- (--) 0.2 0 0 0 0.2
15-01-2018 10 (13:40) 2.9 (09:30) 6.5 -- (--) -- (--) 3 3 0 0 0
14-01-2018 8.7 (13:40) 4 (00:00) 6.3 -- (--) -- (--) 9.4 2.6 0.2 2.8 3.8
13-01-2018 8.6 (12:00) 4.4 (00:00) 6.5 -- (--) -- (--) 11.6 0.2 0 2.8 8.6
12-01-2018 11.2 (14:00) 5.3 (00:00) 8.3 -- (--) -- (--) 2.2 2 0.2 0 0
11-01-2018 8.7 (19:50) 3.9 (00:00) 6.3 -- (--) -- (--) 22 1.4 8.2 10 2.4
10-01-2018 12.8 (16:10) 3.1 (00:00) 8 -- (--) -- (--) 6 0 0 2.4 3.6
09-01-2018 8.2 (13:50) 1.1 (00:00) 4.6 -- (--) -- (--) 0.2 0 0 0.2 0
08-01-2018 12 (15:20) 1.1 (00:00) 6.6 -- (--) -- (--) 0 0 0 0 0
07-01-2018 8.7 (15:20) 3.1 (00:00) 5.9 -- (--) -- (--) 19.8 17.6 2 0.2 0
06-01-2018 6.7 (00:00) 4.1 (00:00) 5.4 -- (--) -- (--) 31.8 5 3.8 11.8 11.2
05-01-2018 14 (00:00) 6.7 (00:00) 10.3 -- (--) -- (--) 12 0 6.8 1.4 3.8
04-01-2018 19.1 (14:10) 8.6 (05:20) 13.9 -- (--) -- (--) 0 0 0 0 0
03-01-2018 17.7 (12:40) 12 (00:00) 14.9 -- (--) -- (--) 0.6 0 0 0.4 0.2
02-01-2018 15 (16:20) 9.2 (00:00) 12.1 -- (--) -- (--) 11.8 4.4 6.4 1 0
01-01-2018 14.5 (14:10) 3.9 (00:00) 9.2 -- (--) -- (--) 15.6 0 0 10 5.6
31-12-2017 17.1 (12:50) 7.2 (00:00) 12.2 -- (--) -- (--) 12.6 0 0 12.6 0
30-12-2017 19.5 (13:40) 8.6 (00:00) 14.1 -- (--) -- (--) 0 0 0 0 0
29-12-2017 17.5 (14:00) 6.9 (00:00) 12.2 -- (--) -- (--) 4.6 0 4.6 0 0
28-12-2017 13.7 (14:10) 4.9 (00:00) 9.3 -- (--) -- (--) 13 3.2 5.2 3 1.6
27-12-2017 9.4 (04:00) 4.6 (00:00) 7 -- (--) -- (--) 46.8 10.8 11.2 13.4 11.4
26-12-2017 10 (22:10) 2.6 (00:00) 6.3 -- (--) -- (--) 5.2 0.2 0 0 5
25-12-2017 15 (14:10) -0.2 (00:00) 7.4 -- (--) -- (--) 4.2 0 0 0 4.2
24-12-2017 15.7 (15:00) 0.3 (00:00) 8 -- (--) -- (--) 0 0 0 0 0

Gráficas

Temp. máximas Temp. mínimas Temp. medias Precipitaciones Rachas de viento máximas Velocidades máximas media en intervalos de 10 minutos

Datos horarios

Fecha y hora oficial Temperatura (ºC) Velocidad del viento (km/h) Dirección del viento Racha (km/h) Dirección de racha Precipitación (mm) Presión (hPa) Tendencia (hPa) Humedad (%)
2018-01-22 23:00:00 10.8 -- -- -- -- 0.4 -- -- 99
2018-01-22 22:00:00 10.9 -- -- -- -- 0.4 -- -- 99
2018-01-22 21:00:00 10.9 -- -- -- -- 0.2 -- -- 98
2018-01-22 20:00:00 11.1 -- -- -- -- 0.6 -- -- 98
2018-01-22 19:00:00 11.3 -- -- -- -- 0.4 -- -- 96
2018-01-22 18:00:00 11.9 -- -- -- -- 0.2 -- -- 93
2018-01-22 17:00:00 12.6 -- -- -- -- 0 -- -- 88
2018-01-22 16:00:00 12.9 -- -- -- -- 0 -- -- 85
2018-01-22 15:00:00 13.4 -- -- -- -- 0 -- -- 80
2018-01-22 14:00:00 13.8 -- -- -- -- 0 -- -- 70
2018-01-22 13:00:00 13.4 -- -- -- -- 0 -- -- 71
2018-01-22 12:00:00 12.8 -- -- -- -- 0 -- -- 74
2018-01-22 11:00:00 9.3 -- -- -- -- 0 -- -- 100
2018-01-22 10:00:00 7.3 -- -- -- -- 0 -- -- 100
2018-01-22 09:00:00 5.2 -- -- -- -- 0 -- -- 100
2018-01-22 08:00:00 3.9 -- -- -- -- 0 -- -- 100
2018-01-22 07:00:00 4.1 -- -- -- -- 0 -- -- 100
2018-01-22 06:00:00 4.8 -- -- -- -- 0 -- -- 100
2018-01-22 05:00:00 5.7 -- -- -- -- 0 -- -- 100
2018-01-22 04:00:00 5.8 -- -- -- -- 0 -- -- 100
2018-01-22 03:00:00 5.9 -- -- -- -- 0 -- -- 100
2018-01-22 02:00:00 5.8 -- -- -- -- 0 -- -- 99
2018-01-22 01:00:00 6 -- -- -- -- 0 -- -- 99
2018-01-22 00:00:00 6.4 -- -- -- -- 0 -- -- 98
2018-01-21 23:00:00 7.2 -- -- -- -- 0 -- -- 98
2018-01-21 22:00:00 7.8 -- -- -- -- 0 -- -- 96
2018-01-21 21:00:00 8.8 -- -- -- -- 0 -- -- 95
2018-01-21 20:00:00 10.3 -- -- -- -- 0 -- -- 92
2018-01-21 19:00:00 11.6 -- -- -- -- 0 -- -- 89
2018-01-21 18:00:00 13.1 -- -- -- -- 0 -- -- 85
2018-01-21 17:00:00 15 -- -- -- -- 0 -- -- 79
2018-01-21 16:00:00 17.2 -- -- -- -- 0 -- -- 67
2018-01-21 15:00:00 16.2 -- -- -- -- 0 -- -- 71
2018-01-21 14:00:00 15.6 -- -- -- -- 0 -- -- 72
2018-01-21 13:00:00 15 -- -- -- -- 0 -- -- 75
2018-01-21 12:00:00 13.8 -- -- -- -- 0 -- -- 80
2018-01-21 11:00:00 13.7 -- -- -- -- 0 -- -- 80
2018-01-21 10:00:00 13.7 -- -- -- -- 0 -- -- 79
2018-01-21 09:00:00 13.2 -- -- -- -- 0 -- -- 83
2018-01-21 08:00:00 12.5 -- -- -- -- 0 -- -- 86
2018-01-21 07:00:00 12 -- -- -- -- 0.6 -- -- 93
2018-01-21 06:00:00 12.4 -- -- -- -- 0.4 -- -- 90
2018-01-21 05:00:00 13.1 -- -- -- -- 0.2 -- -- 85
2018-01-21 04:00:00 13.2 -- -- -- -- 0 -- -- 83
2018-01-21 03:00:00 13.1 -- -- -- -- 0 -- -- 83
2018-01-21 02:00:00 12.9 -- -- -- -- 0 -- -- 84
2018-01-21 01:00:00 12.2 -- -- -- -- 0.6 -- -- 91
2018-01-21 00:00:00 12.7 -- -- -- -- 0.2 -- -- 86
2018-01-20 23:00:00 13.2 -- -- -- -- 0 -- -- 84
2018-01-20 22:00:00 13.1 -- -- -- -- 0 -- -- 84
2018-01-20 21:00:00 13.6 -- -- -- -- 0.2 -- -- 80
2018-01-20 20:00:00 11.2 -- -- -- -- 0 -- -- 94
2018-01-20 19:00:00 11.1 -- -- -- -- 0 -- -- 94
2018-01-20 18:00:00 10.9 -- -- -- -- 0 -- -- 95
2018-01-20 17:00:00 11.1 -- -- -- -- 0 -- -- 95
2018-01-20 16:00:00 10.8 -- -- -- -- 0 -- -- 94
2018-01-20 15:00:00 10.4 -- -- -- -- 0.6 -- -- 94
2018-01-20 14:00:00 11 -- -- -- -- 0.2 -- -- 86
2018-01-20 13:00:00 9.9 -- -- -- -- 0 -- -- 82
2018-01-20 12:00:00 10.1 -- -- -- -- 0 -- -- 78
2018-01-20 11:00:00 9.3 -- -- -- -- 0 -- -- 85
2018-01-20 10:00:00 6.8 -- -- -- -- 0 -- -- 93
2018-01-20 09:00:00 6.1 -- -- -- -- 0 -- -- 94
2018-01-20 08:00:00 6.1 -- -- -- -- 0 -- -- 97
2018-01-20 07:00:00 5.7 -- -- -- -- 0 -- -- 99
2018-01-20 06:00:00 5.6 -- -- -- -- 0 -- -- 99
2018-01-20 05:00:00 5.6 -- -- -- -- 0 -- -- 98
2018-01-20 04:00:00 5.8 -- -- -- -- 0 -- -- 98
2018-01-20 03:00:00 6.9 -- -- -- -- 0 -- -- 95
2018-01-20 02:00:00 8.4 -- -- -- -- 0 -- -- 95
2018-01-20 01:00:00 9.1 -- -- -- -- 0 -- -- 93
2018-01-20 00:00:00 9.2 -- -- -- -- 0.2 -- -- 92
2018-01-19 23:00:00 9.2 -- -- -- -- 0 -- -- 91
2018-01-19 22:00:00 9.7 -- -- -- -- 0 -- -- 86
2018-01-19 21:00:00 10.1 -- -- -- -- 0 -- -- 79
2018-01-19 20:00:00 10.1 -- -- -- -- 0 -- -- 76
2018-01-19 19:00:00 9.8 -- -- -- -- 0 -- -- 79
2018-01-19 18:00:00 9.6 -- -- -- -- 0 -- -- 87
2018-01-19 17:00:00 10.2 -- -- -- -- 0.2 -- -- 82
2018-01-19 16:00:00 9.8 -- -- -- -- 0.6 -- -- 91
2018-01-19 15:00:00 9.6 -- -- -- -- 0.4 -- -- 94
2018-01-19 14:00:00 9.7 -- -- -- -- 0 -- -- 92
2018-01-19 13:00:00 9.1 -- -- -- -- 1 -- -- 94
2018-01-19 12:00:00 9.1 -- -- -- -- 1.8 -- -- 100
2018-01-19 11:00:00 8.4 -- -- -- -- 1.8 -- -- 100
2018-01-19 10:00:00 7.8 -- -- -- -- 1.6 -- -- 100
2018-01-19 09:00:00 7.6 -- -- -- -- 0.2 -- -- 100
2018-01-19 08:00:00 7.5 -- -- -- -- 0 -- -- 99
2018-01-19 07:00:00 7.5 -- -- -- -- 0.2 -- -- 99
2018-01-19 06:00:00 7.3 -- -- -- -- 1 -- -- 99
2018-01-19 05:00:00 7.2 -- -- -- -- 0 -- -- 99
2018-01-19 04:00:00 7.1 -- -- -- -- 0.2 -- -- 98
2018-01-19 03:00:00 7 -- -- -- -- 0 -- -- 98
2018-01-19 02:00:00 7.1 -- -- -- -- 0 -- -- 97
2018-01-19 01:00:00 7 -- -- -- -- 0 -- -- 96
2018-01-19 00:00:00 6.9 -- -- -- -- 0 -- -- 95
2018-01-18 23:00:00 6.7 -- -- -- -- 0 -- -- 95
2018-01-18 22:00:00 6.9 -- -- -- -- 0 -- -- 94
2018-01-18 21:00:00 6.9 -- -- -- -- 0 -- -- 94
2018-01-18 20:00:00 7.1 -- -- -- -- 0 -- -- 93
2018-01-18 19:00:00 8.3 -- -- -- -- 0 -- -- 89
2018-01-18 18:00:00 10.5 -- -- -- -- 0 -- -- 80
2018-01-18 17:00:00 11.7 -- -- -- -- 0 -- -- 75
2018-01-18 16:00:00 12.6 -- -- -- -- 0 -- -- 70
2018-01-18 15:00:00 12.5 -- -- -- -- 0 -- -- 70
2018-01-18 14:00:00 12.1 -- -- -- -- 0 -- -- 70
2018-01-18 13:00:00 9.7 -- -- -- -- 0 -- -- 79
2018-01-18 12:00:00 6.7 -- -- -- -- 0 -- -- 89
2018-01-18 11:00:00 3.3 -- -- -- -- 0 -- -- 100
2018-01-18 10:00:00 1.2 -- -- -- -- 0 -- -- 100
2018-01-18 09:00:00 -0.1 -- -- -- -- 0 -- -- 100
2018-01-18 08:00:00 0.2 -- -- -- -- 0 -- -- 100
2018-01-18 07:00:00 0.4 -- -- -- -- 0 -- -- 100
2018-01-18 06:00:00 0.3 -- -- -- -- 0 -- -- 100
2018-01-18 05:00:00 0.8 -- -- -- -- 0 -- -- 99
2018-01-18 04:00:00 1.3 -- -- -- -- 0 -- -- 99
2018-01-18 03:00:00 1.8 -- -- -- -- 0 -- -- 99
2018-01-18 02:00:00 2.4 -- -- -- -- 0 -- -- 98
2018-01-18 01:00:00 3.2 -- -- -- -- 0 -- -- 97
2018-01-18 00:00:00 4.1 -- -- -- -- 0 -- -- 96
2018-01-17 23:00:00 5.3 -- -- -- -- 0 -- -- 94
2018-01-17 22:00:00 6.7 -- -- -- -- 0 -- -- 90
2018-01-17 21:00:00 8.3 -- -- -- -- 0 -- -- 87
2018-01-17 20:00:00 8.7 -- -- -- -- 0 -- -- 88
2018-01-17 19:00:00 8.7 -- -- -- -- 0 -- -- 87
2018-01-17 18:00:00 9.2 -- -- -- -- 0 -- -- 83
2018-01-17 17:00:00 9.6 -- -- -- -- 0 -- -- 83
2018-01-17 16:00:00 10.2 -- -- -- -- 0 -- -- 80
2018-01-17 15:00:00 10.5 -- -- -- -- 0 -- -- 76
2018-01-17 14:00:00 10.4 -- -- -- -- 0.2 -- -- 77
2018-01-17 13:00:00 11.1 -- -- -- -- 0.2 -- -- 70
2018-01-17 12:00:00 10.7 -- -- -- -- 0 -- -- 78
2018-01-17 11:00:00 9.5 -- -- -- -- 0 -- -- 85
2018-01-17 10:00:00 8.4 -- -- -- -- 1.2 -- -- 94
2018-01-17 09:00:00 8.4 -- -- -- -- 1.8 -- -- 91
2018-01-17 08:00:00 8.9 -- -- -- -- 0.6 -- -- 90
2018-01-17 07:00:00 9 -- -- -- -- 1.2 -- -- 92
2018-01-17 06:00:00 9.7 -- -- -- -- 1 -- -- 87
2018-01-17 05:00:00 10.1 -- -- -- -- 1.2 -- -- 91
2018-01-17 04:00:00 11 -- -- -- -- 1.2 -- -- 82
2018-01-17 03:00:00 11.3 -- -- -- -- 1.4 -- -- 89
2018-01-17 02:00:00 12.5 -- -- -- -- 0 -- -- 77
2018-01-17 01:00:00 12.8 -- -- -- -- 0.6 -- -- 89
2018-01-17 00:00:00 12.7 -- -- -- -- 0.2 -- -- 87
2018-01-16 23:00:00 11.1 -- -- -- -- 0 -- -- 87
2018-01-16 22:00:00 10.1 -- -- -- -- 0 -- -- 88
2018-01-16 21:00:00 10.4 -- -- -- -- 0 -- -- 86
2018-01-16 20:00:00 11 -- -- -- -- 0 -- -- 84
2018-01-16 19:00:00 11.6 -- -- -- -- 0 -- -- 79
2018-01-16 18:00:00 13.4 -- -- -- -- 0 -- -- 72
2018-01-16 17:00:00 14.9 -- -- -- -- 0 -- -- 64
2018-01-16 16:00:00 16.6 -- -- -- -- 0 -- -- 60
2018-01-16 15:00:00 17.1 -- -- -- -- 0 -- -- 58
2018-01-16 14:00:00 16.8 -- -- -- -- 0 -- -- 59
2018-01-16 13:00:00 15.2 -- -- -- -- 0 -- -- 63
2018-01-16 12:00:00 11.9 -- -- -- -- 0 -- -- 71
2018-01-16 11:00:00 10.7 -- -- -- -- 0 -- -- 75
2018-01-16 10:00:00 9.8 -- -- -- -- 0 -- -- 75
2018-01-16 09:00:00 9.4 -- -- -- -- 0 -- -- 76
2018-01-16 08:00:00 9.3 -- -- -- -- 0 -- -- 77
2018-01-16 07:00:00 9.3 -- -- -- -- 0 -- -- 76
2018-01-16 06:00:00 9.2 -- -- -- -- 0 -- -- 75
2018-01-16 05:00:00 9.2 -- -- -- -- 0 -- -- 75
2018-01-16 04:00:00 9.6 -- -- -- -- 0 -- -- 72
2018-01-16 03:00:00 9.6 -- -- -- -- 0 -- -- 71
2018-01-16 02:00:00 9.6 -- -- -- -- 0 -- -- 69
2018-01-16 01:00:00 9.3 -- -- -- -- 0 -- -- 68
2018-01-16 00:00:00 9 -- -- -- -- 0 -- -- 67
2018-01-15 23:00:00 8.7 -- -- -- -- 0 -- -- 65
2018-01-15 22:00:00 8.1 -- -- -- -- 0 -- -- 70
2018-01-15 21:00:00 8.2 -- -- -- -- 0 -- -- 68
2018-01-15 20:00:00 8.1 -- -- -- -- 0 -- -- 69
2018-01-15 19:00:00 8.3 -- -- -- -- 0 -- -- 67
2018-01-15 18:00:00 8.3 -- -- -- -- 0 -- -- 66
2018-01-15 17:00:00 8.6 -- -- -- -- 0 -- -- 69
2018-01-15 16:00:00 9 -- -- -- -- 0 -- -- 67
2018-01-15 15:00:00 9.5 -- -- -- -- 0 -- -- 63
2018-01-15 14:00:00 9.9 -- -- -- -- 0 -- -- 66
2018-01-15 13:00:00 9.4 -- -- -- -- 0 -- -- 70
2018-01-15 12:00:00 7.3 -- -- -- -- 0 -- -- 78
2018-01-15 11:00:00 5.8 -- -- -- -- 0 -- -- 100
2018-01-15 10:00:00 3.8 -- -- -- -- 0 -- -- 100
2018-01-15 09:00:00 3.1 -- -- -- -- 0 -- -- 100
2018-01-15 08:00:00 3.6 -- -- -- -- 0 -- -- 100
2018-01-15 07:00:00 4 -- -- -- -- 0 -- -- 100
2018-01-15 06:00:00 4.5 -- -- -- -- 0 -- -- 100
2018-01-15 05:00:00 5.3 -- -- -- -- 0 -- -- 100
2018-01-15 04:00:00 5.6 -- -- -- -- 0.6 -- -- 100
2018-01-15 03:00:00 5.7 -- -- -- -- 2 -- -- 100
2018-01-15 02:00:00 5.7 -- -- -- -- 0.4 -- -- 99
2018-01-15 01:00:00 5.8 -- -- -- -- 0 -- -- 99
2018-01-15 00:00:00 6.1 -- -- -- -- 0.2 -- -- 99
2018-01-14 23:00:00 6.3 -- -- -- -- 1 -- -- 99
2018-01-14 22:00:00 6.3 -- -- -- -- 1 -- -- 98
2018-01-14 21:00:00 6.3 -- -- -- -- 0.8 -- -- 98
2018-01-14 20:00:00 6.4 -- -- -- -- 0 -- -- 97
2018-01-14 19:00:00 6.7 -- -- -- -- 0.8 -- -- 96
2018-01-14 18:00:00 7.1 -- -- -- -- 1.4 -- -- 94
2018-01-14 17:00:00 7.4 -- -- -- -- 0.2 -- -- 95
2018-01-14 16:00:00 7.7 -- -- -- -- 0.6 -- -- 92
2018-01-14 15:00:00 8.1 -- -- -- -- 0.4 -- -- 87
2018-01-14 14:00:00 8.6 -- -- -- -- 0.2 -- -- 84
2018-01-14 13:00:00 8 -- -- -- -- 0 -- -- 91
2018-01-14 12:00:00 6.5 -- -- -- -- 0 -- -- 99
2018-01-14 11:00:00 5.5 -- -- -- -- 0 -- -- 100
2018-01-14 10:00:00 4.5 -- -- -- -- 0 -- -- 100
2018-01-14 09:00:00 4.3 -- -- -- -- 0 -- -- 100
2018-01-14 08:00:00 4.3 -- -- -- -- 0 -- -- 100
2018-01-14 07:00:00 4.3 -- -- -- -- 0.2 -- -- 100
2018-01-14 06:00:00 4.1 -- -- -- -- 0 -- -- 100
2018-01-14 05:00:00 4.1 -- -- -- -- 0 -- -- 100
2018-01-14 04:00:00 4.4 -- -- -- -- 0 -- -- 100
2018-01-14 03:00:00 4.6 -- -- -- -- 0.4 -- -- 100
2018-01-14 02:00:00 4.5 -- -- -- -- 0.4 -- -- 100
2018-01-14 01:00:00 4.3 -- -- -- -- 1.8 -- -- 99
2018-01-14 00:00:00 4.4 -- -- -- -- 1.6 -- -- 99
2018-01-13 23:00:00 4.5 -- -- -- -- 1.2 -- -- 99
2018-01-13 22:00:00 4.5 -- -- -- -- 1.6 -- -- 99
2018-01-13 21:00:00 4.7 -- -- -- -- 1.2 -- -- 98
2018-01-13 20:00:00 4.9 -- -- -- -- 1.8 -- -- 98
2018-01-13 19:00:00 5 -- -- -- -- 1.2 -- -- 97
2018-01-13 18:00:00 5.3 -- -- -- -- 0.6 -- -- 95
2018-01-13 17:00:00 5.7 -- -- -- -- 0.8 -- -- 93
2018-01-13 16:00:00 6.1 -- -- -- -- 1 -- -- 93
2018-01-13 15:00:00 6.5 -- -- -- -- 0.2 -- -- 87
2018-01-13 14:00:00 6.8 -- -- -- -- 0.2 -- -- 89
2018-01-13 13:00:00 8.3 -- -- -- -- 0 -- -- 72
2018-01-13 12:00:00 8.6 -- -- -- -- 0 -- -- 68
2018-01-13 11:00:00 7.7 -- -- -- -- 0 -- -- 73
2018-01-13 10:00:00 7.5 -- -- -- -- 0 -- -- 72
2018-01-13 09:00:00 7.3 -- -- -- -- 0 -- -- 73
2018-01-13 08:00:00 7.7 -- -- -- -- 0 -- -- 71
2018-01-13 07:00:00 7.6 -- -- -- -- 0 -- -- 71
2018-01-13 06:00:00 7.5 -- -- -- -- 0 -- -- 69
2018-01-13 05:00:00 7.3 -- -- -- -- 0 -- -- 70
2018-01-13 04:00:00 7.5 -- -- -- -- 0 -- -- 67
2018-01-13 03:00:00 7.6 -- -- -- -- 0 -- -- 66
2018-01-13 02:00:00 7.8 -- -- -- -- 0.2 -- -- 64
2018-01-13 01:00:00 6.8 -- -- -- -- 0 -- -- 68
2018-01-13 00:00:00 6.1 -- -- -- -- 0 -- -- 71
2018-01-12 23:00:00 5.7 -- -- -- -- 0 -- -- 76
2018-01-12 22:00:00 6.5 -- -- -- -- 0 -- -- 72
2018-01-12 21:00:00 6.8 -- -- -- -- 0 -- -- 72
2018-01-12 20:00:00 7.5 -- -- -- -- 0 -- -- 72
2018-01-12 19:00:00 7.1 -- -- -- -- 0 -- -- 90
2018-01-12 18:00:00 8.4 -- -- -- -- 0 -- -- 83
2018-01-12 17:00:00 10.1 -- -- -- -- 0 -- -- 83
2018-01-12 16:00:00 10.8 -- -- -- -- 0 -- -- 76
2018-01-12 15:00:00 11.1 -- -- -- -- 0 -- -- 83
2018-01-12 14:00:00 11.2 -- -- -- -- 0 -- -- 81
2018-01-12 13:00:00 10.4 -- -- -- -- 0 -- -- 88
2018-01-12 12:00:00 8.4 -- -- -- -- 0 -- -- 99
2018-01-12 11:00:00 7.3 -- -- -- -- 0 -- -- 100
2018-01-12 10:00:00 6.7 -- -- -- -- 0 -- -- 100
2018-01-12 09:00:00 6.5 -- -- -- -- 0 -- -- 99
2018-01-12 08:00:00 6.6 -- -- -- -- 0 -- -- 99
2018-01-12 07:00:00 7.1 -- -- -- -- 0.2 -- -- 99
2018-01-12 06:00:00 7.3 -- -- -- -- 0 -- -- 98
2018-01-12 05:00:00 7.6 -- -- -- -- 0 -- -- 97
2018-01-12 04:00:00 7.6 -- -- -- -- 0.4 -- -- 99
2018-01-12 03:00:00 7.7 -- -- -- -- 1.4 -- -- 98
2018-01-12 02:00:00 7.8 -- -- -- -- 0 -- -- 98
2018-01-12 01:00:00 7.8 -- -- -- -- 0.2 -- -- 97
2018-01-12 00:00:00 7.9 -- -- -- -- 0.2 -- -- 96
2018-01-11 23:00:00 8.1 -- -- -- -- 0.2 -- -- 95
2018-01-11 22:00:00 8.5 -- -- -- -- 0.2 -- -- 90
2018-01-11 21:00:00 8.5 -- -- -- -- 0.4 -- -- 90
2018-01-11 20:00:00 8.6 -- -- -- -- 0.4 -- -- 87
2018-01-11 19:00:00 8.1 -- -- -- -- 1 -- -- 89
2018-01-11 18:00:00 7.9 -- -- -- -- 0 -- -- 86
2018-01-11 17:00:00 6 -- -- -- -- 0.2 -- -- 97
2018-01-11 16:00:00 5.3 -- -- -- -- 0.8 -- -- 97
2018-01-11 15:00:00 5.5 -- -- -- -- 2 -- -- 98
2018-01-11 14:00:00 4.9 -- -- -- -- 3.6 -- -- 98
2018-01-11 13:00:00 4.8 -- -- -- -- 3.4 -- -- 97
2018-01-11 12:00:00 5 -- -- -- -- 4.8 -- -- 96
2018-01-11 11:00:00 5.4 -- -- -- -- 0.4 -- -- 97
2018-01-11 10:00:00 4.5 -- -- -- -- 1.2 -- -- 98
2018-01-11 09:00:00 4.5 -- -- -- -- 1.4 -- -- 98
2018-01-11 08:00:00 4.3 -- -- -- -- 0.4 -- -- 98
2018-01-11 07:00:00 4.1 -- -- -- -- 0 -- -- 97
2018-01-11 06:00:00 4.5 -- -- -- -- 0.6 -- -- 95
2018-01-11 05:00:00 4.8 -- -- -- -- 0.8 -- -- 94
2018-01-11 04:00:00 4.7 -- -- -- -- 0 -- -- 88
2018-01-11 03:00:00 4.2 -- -- -- -- 0 -- -- 88
2018-01-11 02:00:00 4.4 -- -- -- -- 0 -- -- 89
2018-01-11 01:00:00 4.7 -- -- -- -- 0 -- -- 87
2018-01-11 00:00:00 4.4 -- -- -- -- 0 -- -- 89
2018-01-10 23:00:00 5.2 -- -- -- -- 0 -- -- 82
2018-01-10 22:00:00 5.4 -- -- -- -- 0 -- -- 84
2018-01-10 21:00:00 5.1 -- -- -- -- 0 -- -- 88
2018-01-10 20:00:00 6.6 -- -- -- -- 0.2 -- -- 89
2018-01-10 19:00:00 6.6 -- -- -- -- 3.4 -- -- 93
2018-01-10 18:00:00 7.7 -- -- -- -- 1.4 -- -- 91
2018-01-10 17:00:00 9.6 -- -- -- -- 0.8 -- -- 77
2018-01-10 16:00:00 12.7 -- -- -- -- 0 -- -- 61
2018-01-10 15:00:00 10.6 -- -- -- -- 0 -- -- 67
2018-01-10 14:00:00 10.4 -- -- -- -- 0.2 -- -- 64
2018-01-10 13:00:00 11.7 -- -- -- -- 0 -- -- 56
2018-01-10 12:00:00 12 -- -- -- -- 0 -- -- 59
2018-01-10 11:00:00 8.1 -- -- -- -- 0 -- -- 82
2018-01-10 10:00:00 4 -- -- -- -- 0 -- -- 96
2018-01-10 09:00:00 3.9 -- -- -- -- 0 -- -- 93
2018-01-10 08:00:00 4.3 -- -- -- -- 0 -- -- 93
2018-01-10 07:00:00 3.4 -- -- -- -- 0 -- -- 94
2018-01-10 06:00:00 3.9 -- -- -- -- 0 -- -- 92
2018-01-10 05:00:00 4.8 -- -- -- -- 0 -- -- 88
2018-01-10 04:00:00 5.5 -- -- -- -- 0 -- -- 85
2018-01-10 03:00:00 6.3 -- -- -- -- 0 -- -- 81
2018-01-10 02:00:00 6.9 -- -- -- -- 0 -- -- 77
2018-01-10 01:00:00 7.1 -- -- -- -- 0 -- -- 75
2018-01-10 00:00:00 7.1 -- -- -- -- 0 -- -- 74
2018-01-09 23:00:00 7.1 -- -- -- -- 0 -- -- 73
2018-01-09 22:00:00 6.9 -- -- -- -- 0 -- -- 74
2018-01-09 21:00:00 7.3 -- -- -- -- 0 -- -- 73
2018-01-09 20:00:00 7.3 -- -- -- -- 0 -- -- 75
2018-01-09 19:00:00 7 -- -- -- -- 0 -- -- 77
2018-01-09 18:00:00 6.2 -- -- -- -- 0 -- -- 82
2018-01-09 17:00:00 5.7 -- -- -- -- 0.2 -- -- 87
2018-01-09 16:00:00 6.9 -- -- -- -- 0 -- -- 80
2018-01-09 15:00:00 8 -- -- -- -- 0 -- -- 69
2018-01-09 14:00:00 8.2 -- -- -- -- 0 -- -- 61
2018-01-09 13:00:00 7.5 -- -- -- -- 0 -- -- 64
2018-01-09 12:00:00 7.3 -- -- -- -- 0 -- -- 65
2018-01-09 11:00:00 6.5 -- -- -- -- 0 -- -- 67
2018-01-09 10:00:00 5.8 -- -- -- -- 0 -- -- 69
2018-01-09 09:00:00 5.1 -- -- -- -- 0 -- -- 71
2018-01-09 08:00:00 5.2 -- -- -- -- 0 -- -- 72
2018-01-09 07:00:00 5.3 -- -- -- -- 0 -- -- 74
2018-01-09 06:00:00 6 -- -- -- -- 0 -- -- 70
2018-01-09 05:00:00 5.3 -- -- -- -- 0 -- -- 76
2018-01-09 04:00:00 4.5 -- -- -- -- 0 -- -- 83
2018-01-09 03:00:00 4.5 -- -- -- -- 0 -- -- 85
2018-01-09 02:00:00 2.8 -- -- -- -- 0 -- -- 97
2018-01-09 01:00:00 1.6 -- -- -- -- 0 -- -- 100
2018-01-09 00:00:00 1.1 -- -- -- -- 0 -- -- 99
2018-01-08 23:00:00 1.4 -- -- -- -- 0 -- -- 99
2018-01-08 22:00:00 2 -- -- -- -- 0 -- -- 98
2018-01-08 21:00:00 2.8 -- -- -- -- 0 -- -- 97
2018-01-08 20:00:00 3.8 -- -- -- -- 0 -- -- 95
2018-01-08 19:00:00 5.2 -- -- -- -- 0 -- -- 92
2018-01-08 18:00:00 6.9 -- -- -- -- 0 -- -- 85
2018-01-08 17:00:00 9 -- -- -- -- 0 -- -- 78
2018-01-08 16:00:00 11.7 -- -- -- -- 0 -- -- 69
2018-01-08 15:00:00 11.8 -- -- -- -- 0 -- -- 63
2018-01-08 14:00:00 11.3 -- -- -- -- 0 -- -- 62
2018-01-08 13:00:00 10.8 -- -- -- -- 0 -- -- 66
2018-01-08 12:00:00 7.7 -- -- -- -- 0 -- -- 98
2018-01-08 11:00:00 4.1 -- -- -- -- 0 -- -- 100
2018-01-08 10:00:00 2.3 -- -- -- -- 0 -- -- 100
2018-01-08 09:00:00 2.1 -- -- -- -- 0 -- -- 100
2018-01-08 08:00:00 2.2 -- -- -- -- 0 -- -- 100
2018-01-08 07:00:00 2.5 -- -- -- -- 0 -- -- 100
2018-01-08 06:00:00 2.7 -- -- -- -- 0 -- -- 100
2018-01-08 05:00:00 2.6 -- -- -- -- 0 -- -- 100
2018-01-08 04:00:00 2.6 -- -- -- -- 0 -- -- 100
2018-01-08 03:00:00 2.5 -- -- -- -- 0 -- -- 100
2018-01-08 02:00:00 2.6 -- -- -- -- 0 -- -- 100
2018-01-08 01:00:00 2.8 -- -- -- -- 0 -- -- 100
2018-01-08 00:00:00 3.1 -- -- -- -- 0 -- -- 99
2018-01-07 23:00:00 3.7 -- -- -- -- 0 -- -- 99
2018-01-07 22:00:00 4.2 -- -- -- -- 0 -- -- 99
2018-01-07 21:00:00 4.8 -- -- -- -- 0 -- -- 99
2018-01-07 20:00:00 5.6 -- -- -- -- 0 -- -- 98
2018-01-07 19:00:00 6.2 -- -- -- -- 0 -- -- 97
2018-01-07 18:00:00 7.4 -- -- -- -- 0 -- -- 95
2018-01-07 17:00:00 8.4 -- -- -- -- 0 -- -- 94
2018-01-07 16:00:00 8.5 -- -- -- -- 0.2 -- -- 93
2018-01-07 15:00:00 8.5 -- -- -- -- 0 -- -- 94
2018-01-07 14:00:00 8 -- -- -- -- 0 -- -- 95
2018-01-07 13:00:00 7.8 -- -- -- -- 0 -- -- 95
2018-01-07 12:00:00 7.7 -- -- -- -- 0 -- -- 98
2018-01-07 11:00:00 7.2 -- -- -- -- 0 -- -- 99
2018-01-07 10:00:00 6.5 -- -- -- -- 0.6 -- -- 98
2018-01-07 09:00:00 6.4 -- -- -- -- 0.4 -- -- 97
2018-01-07 08:00:00 6.3 -- -- -- -- 0.4 -- -- 95
2018-01-07 07:00:00 5.7 -- -- -- -- 0.6 -- -- 96
2018-01-07 06:00:00 5.5 -- -- -- -- 1.2 -- -- 94
2018-01-07 05:00:00 5.4 -- -- -- -- 2.2 -- -- 91
2018-01-07 04:00:00 5.8 -- -- -- -- 3.6 -- -- 91
2018-01-07 03:00:00 5.7 -- -- -- -- 5 -- -- 93
2018-01-07 02:00:00 5.7 -- -- -- -- 3.8 -- -- 92
2018-01-07 01:00:00 5.7 -- -- -- -- 1.8 -- -- 92
2018-01-07 00:00:00 5.1 -- -- -- -- 2.4 -- -- 94
2018-01-06 23:00:00 4.9 -- -- -- -- 1.6 -- -- 95
2018-01-06 22:00:00 4.8 -- -- -- -- 1.8 -- -- 92
2018-01-06 21:00:00 4.7 -- -- -- -- 2 -- -- 92
2018-01-06 20:00:00 4.1 -- -- -- -- 1.8 -- -- 93
2018-01-06 19:00:00 4.1 -- -- -- -- 1.6 -- -- 96
2018-01-06 18:00:00 4.7 -- -- -- -- 2 -- -- 96
2018-01-06 17:00:00 4.6 -- -- -- -- 2.2 -- -- 94
2018-01-06 16:00:00 4.9 -- -- -- -- 2 -- -- 92
2018-01-06 15:00:00 5 -- -- -- -- 3.6 -- -- 96
2018-01-06 14:00:00 5.2 -- -- -- -- 1.4 -- -- 94
2018-01-06 13:00:00 5.1 -- -- -- -- 0.6 -- -- 94
2018-01-06 12:00:00 5.1 -- -- -- -- 0.4 -- -- 96
2018-01-06 11:00:00 4.9 -- -- -- -- 0.2 -- -- 98
2018-01-06 10:00:00 4.7 -- -- -- -- 0.8 -- -- 98
2018-01-06 09:00:00 5 -- -- -- -- 0.6 -- -- 98
2018-01-06 08:00:00 5 -- -- -- -- 0.6 -- -- 98
2018-01-06 07:00:00 5.3 -- -- -- -- 1.2 -- -- 98
2018-01-06 06:00:00 5.4 -- -- -- -- 1.6 -- -- 98
2018-01-06 05:00:00 5.4 -- -- -- -- 0.4 -- -- 98
2018-01-06 04:00:00 5.6 -- -- -- -- 1 -- -- 96
2018-01-06 03:00:00 6 -- -- -- -- 1.2 -- -- 94
2018-01-06 02:00:00 6.4 -- -- -- -- 0.8 -- -- 98
2018-01-06 01:00:00 6.4 -- -- -- -- 0 -- -- 97
2018-01-06 00:00:00 6.7 -- -- -- -- 0.4 -- -- 97
2018-01-05 23:00:00 6.9 -- -- -- -- 1.2 -- -- 97
2018-01-05 22:00:00 7.2 -- -- -- -- 0.4 -- -- 97
2018-01-05 21:00:00 7.3 -- -- -- -- 0.6 -- -- 96
2018-01-05 20:00:00 7.6 -- -- -- -- 0.6 -- -- 96
2018-01-05 19:00:00 8.2 -- -- -- -- 0.6 -- -- 94
2018-01-05 18:00:00 9 -- -- -- -- 0.4 -- -- 90
2018-01-05 17:00:00 9.9 -- -- -- -- 0 -- -- 93
2018-01-05 16:00:00 10 -- -- -- -- 0 -- -- 90
2018-01-05 15:00:00 9.9 -- -- -- -- 0 -- -- 92
2018-01-05 14:00:00 9.3 -- -- -- -- 0.4 -- -- 94
2018-01-05 13:00:00 9.3 -- -- -- -- 0.6 -- -- 93
2018-01-05 12:00:00 9.5 -- -- -- -- 1.6 -- -- 92
2018-01-05 11:00:00 9.7 -- -- -- -- 2.2 -- -- 94
2018-01-05 10:00:00 10.9 -- -- -- -- 3 -- -- 87
2018-01-05 09:00:00 13 -- -- -- -- 0 -- -- 69
2018-01-05 08:00:00 13 -- -- -- -- 0 -- -- 68
2018-01-05 07:00:00 13.5 -- -- -- -- 0 -- -- 65
2018-01-05 06:00:00 13.7 -- -- -- -- 0 -- -- 62
2018-01-05 05:00:00 13.5 -- -- -- -- 0 -- -- 66
2018-01-05 04:00:00 13.4 -- -- -- -- 0 -- -- 67
2018-01-05 03:00:00 13.2 -- -- -- -- 0 -- -- 68
2018-01-05 02:00:00 13.6 -- -- -- -- 0 -- -- 66
2018-01-05 01:00:00 13.8 -- -- -- -- 0 -- -- 66
2018-01-05 00:00:00 14 -- -- -- -- 0 -- -- 66
2018-01-04 23:00:00 13.8 -- -- -- -- 0 -- -- 66
2018-01-04 22:00:00 14.5 -- -- -- -- 0 -- -- 64
2018-01-04 21:00:00 15 -- -- -- -- 0 -- -- 63
2018-01-04 20:00:00 14.2 -- -- -- -- 0 -- -- 69
2018-01-04 19:00:00 14.2 -- -- -- -- 0 -- -- 68
2018-01-04 18:00:00 14.3 -- -- -- -- 0 -- -- 68
2018-01-04 17:00:00 15.8 -- -- -- -- 0 -- -- 66
2018-01-04 16:00:00 17.1 -- -- -- -- 0 -- -- 58
2018-01-04 15:00:00 18.4 -- -- -- -- 0 -- -- 53
2018-01-04 14:00:00 19 -- -- -- -- 0 -- -- 55
2018-01-04 13:00:00 18 -- -- -- -- 0 -- -- 61
2018-01-04 12:00:00 17.2 -- -- -- -- 0 -- -- 67
2018-01-04 11:00:00 12.7 -- -- -- -- 0 -- -- 93
2018-01-04 10:00:00 9.6 -- -- -- -- 0 -- -- 99
2018-01-04 09:00:00 9.2 -- -- -- -- 0 -- -- 98
2018-01-04 08:00:00 10.3 -- -- -- -- 0 -- -- 98
2018-01-04 07:00:00 10.8 -- -- -- -- 0 -- -- 100
2018-01-04 06:00:00 9.6 -- -- -- -- 0 -- -- 100
2018-01-04 05:00:00 8.8 -- -- -- -- 0 -- -- 100
2018-01-04 04:00:00 9.5 -- -- -- -- 0 -- -- 99
2018-01-04 03:00:00 10.5 -- -- -- -- 0 -- -- 99
2018-01-04 02:00:00 11.5 -- -- -- -- 0 -- -- 99
2018-01-04 01:00:00 11.9 -- -- -- -- 0 -- -- 100
2018-01-04 00:00:00 12.4 -- -- -- -- 0 -- -- 99
2018-01-03 23:00:00 12.7 -- -- -- -- 0 -- -- 99
2018-01-03 22:00:00 12.9 -- -- -- -- 0 -- -- 99
2018-01-03 21:00:00 13 -- -- -- -- 0 -- -- 99
2018-01-03 20:00:00 13.6 -- -- -- -- 0.2 -- -- 98
2018-01-03 19:00:00 14 -- -- -- -- 0 -- -- 98
2018-01-03 18:00:00 14.3 -- -- -- -- 0 -- -- 95
2018-01-03 17:00:00 15 -- -- -- -- 0.2 -- -- 94
2018-01-03 16:00:00 15.3 -- -- -- -- 0.2 -- -- 92
2018-01-03 15:00:00 16.1 -- -- -- -- 0 -- -- 85
2018-01-03 14:00:00 16.1 -- -- -- -- 0 -- -- 86
2018-01-03 13:00:00 16.9 -- -- -- -- 0 -- -- 79
2018-01-03 12:00:00 17 -- -- -- -- 0 -- -- 77
2018-01-03 11:00:00 15 -- -- -- -- 0 -- -- 86
2018-01-03 10:00:00 14.2 -- -- -- -- 0 -- -- 89
2018-01-03 09:00:00 14.1 -- -- -- -- 0 -- -- 88
2018-01-03 08:00:00 14.4 -- -- -- -- 0 -- -- 86
2018-01-03 07:00:00 14.4 -- -- -- -- 0 -- -- 83
2018-01-03 06:00:00 14.1 -- -- -- -- 0 -- -- 86
2018-01-03 05:00:00 13.7 -- -- -- -- 0 -- -- 86
2018-01-03 04:00:00 12.4 -- -- -- -- 0 -- -- 91
2018-01-03 03:00:00 12.4 -- -- -- -- 0 -- -- 90
2018-01-03 02:00:00 13 -- -- -- -- 0 -- -- 90
2018-01-03 01:00:00 12.5 -- -- -- -- 0 -- -- 91
2018-01-03 00:00:00 12 -- -- -- -- 0 -- -- 92
2018-01-02 23:00:00 11.9 -- -- -- -- 0 -- -- 92
2018-01-02 22:00:00 11.7 -- -- -- -- 0 -- -- 92
2018-01-02 21:00:00 11.1 -- -- -- -- 0 -- -- 95
2018-01-02 20:00:00 11.5 -- -- -- -- 0 -- -- 92
2018-01-02 19:00:00 12.6 -- -- -- -- 0 -- -- 91
2018-01-02 18:00:00 13.5 -- -- -- -- 0 -- -- 89
2018-01-02 17:00:00 14.6 -- -- -- -- 0 -- -- 86
2018-01-02 16:00:00 14.7 -- -- -- -- 0 -- -- 79
2018-01-02 15:00:00 12.7 -- -- -- -- 0 -- -- 90
2018-01-02 14:00:00 11.7 -- -- -- -- 0.2 -- -- 96
2018-01-02 13:00:00 11 -- -- -- -- 0.8 -- -- 97
2018-01-02 12:00:00 10.5 -- -- -- -- 2.4 -- -- 97
2018-01-02 11:00:00 10.2 -- -- -- -- 1.4 -- -- 97
2018-01-02 10:00:00 9.7 -- -- -- -- 1.4 -- -- 98
2018-01-02 09:00:00 9.5 -- -- -- -- 0.4 -- -- 97
2018-01-02 08:00:00 9.6 -- -- -- -- 0.6 -- -- 96
2018-01-02 07:00:00 9.5 -- -- -- -- 0.2 -- -- 99
2018-01-02 06:00:00 9.5 -- -- -- -- 0.2 -- -- 99
2018-01-02 05:00:00 9.3 -- -- -- -- 0 -- -- 99
2018-01-02 04:00:00 9.4 -- -- -- -- 0 -- -- 98
2018-01-02 03:00:00 9.8 -- -- -- -- 1.2 -- -- 98
2018-01-02 02:00:00 9.9 -- -- -- -- 2 -- -- 98
2018-01-02 01:00:00 10.1 -- -- -- -- 1 -- -- 97
2018-01-02 00:00:00 10.6 -- -- -- -- 2 -- -- 96
2018-01-01 23:00:00 10.8 -- -- -- -- 1.2 -- -- 96
2018-01-01 22:00:00 11 -- -- -- -- 1.4 -- -- 96
2018-01-01 21:00:00 11.4 -- -- -- -- 0.8 -- -- 91
2018-01-01 20:00:00 12.1 -- -- -- -- 0 -- -- 84
2018-01-01 19:00:00 12.6 -- -- -- -- 0.2 -- -- 80
2018-01-01 18:00:00 11.8 -- -- -- -- 1.6 -- -- 87
2018-01-01 17:00:00 10.1 -- -- -- -- 6.4 -- -- 94
2018-01-01 16:00:00 11.1 -- -- -- -- 2 -- -- 85
2018-01-01 15:00:00 13.1 -- -- -- -- 0 -- -- 64
2018-01-01 14:00:00 14.2 -- -- -- -- 0 -- -- 57
2018-01-01 13:00:00 13 -- -- -- -- 0 -- -- 59
2018-01-01 12:00:00 12.3 -- -- -- -- 0 -- -- 60
2018-01-01 11:00:00 11 -- -- -- -- 0 -- -- 62
2018-01-01 10:00:00 8.9 -- -- -- -- 0 -- -- 67
2018-01-01 09:00:00 7.2 -- -- -- -- 0 -- -- 70
2018-01-01 08:00:00 6 -- -- -- -- 0 -- -- 75
2018-01-01 07:00:00 6 -- -- -- -- 0 -- -- 75
2018-01-01 06:00:00 5.8 -- -- -- -- 0 -- -- 74
2018-01-01 05:00:00 4.8 -- -- -- -- 0 -- -- 77
2018-01-01 04:00:00 4.1 -- -- -- -- 0 -- -- 83
2018-01-01 03:00:00 4.6 -- -- -- -- 0 -- -- 82
2018-01-01 02:00:00 5.2 -- -- -- -- 0 -- -- 79
2018-01-01 01:00:00 6.3 -- -- -- -- 0 -- -- 77
2018-01-01 00:00:00 7.5 -- -- -- -- 0 -- -- 67
2017-12-31 23:00:00 7.5 -- -- -- -- 0 -- -- 69
2017-12-31 22:00:00 7.8 -- -- -- -- 0 -- -- 71
2017-12-31 21:00:00 8.4 -- -- -- -- 0 -- -- 65
2017-12-31 20:00:00 8 -- -- -- -- 0 -- -- 79
2017-12-31 19:00:00 8.4 -- -- -- -- 0 -- -- 80
2017-12-31 18:00:00 8.5 -- -- -- -- 0.6 -- -- 85
2017-12-31 17:00:00 8.3 -- -- -- -- 4 -- -- 85
2017-12-31 16:00:00 9.3 -- -- -- -- 6.4 -- -- 82
2017-12-31 15:00:00 12.4 -- -- -- -- 1.6 -- -- 80
2017-12-31 14:00:00 15.2 -- -- -- -- 0 -- -- 60
2017-12-31 13:00:00 17.1 -- -- -- -- 0 -- -- 52
2017-12-31 12:00:00 15.4 -- -- -- -- 0 -- -- 56
2017-12-31 11:00:00 14.9 -- -- -- -- 0 -- -- 57
2017-12-31 10:00:00 14.7 -- -- -- -- 0 -- -- 57
2017-12-31 09:00:00 14.3 -- -- -- -- 0 -- -- 60
2017-12-31 08:00:00 14 -- -- -- -- 0 -- -- 59
2017-12-31 07:00:00 14 -- -- -- -- 0 -- -- 61
2017-12-31 06:00:00 13.8 -- -- -- -- 0 -- -- 61
2017-12-31 05:00:00 13.9 -- -- -- -- 0 -- -- 59
2017-12-31 04:00:00 13.9 -- -- -- -- 0 -- -- 60
2017-12-31 03:00:00 13.8 -- -- -- -- 0 -- -- 62
2017-12-31 02:00:00 13.8 -- -- -- -- 0 -- -- 63
2017-12-31 01:00:00 13.8 -- -- -- -- 0 -- -- 62